sensor_id;sensor_type;location;lat;lon;timestamp;P1;durP1;ratioP1;P2;durP2;ratioP2
10491;SDS011;5293;51.464;-2.566;2023-04-24T00:00:03;12.27;;;7.43;;
10491;SDS011;5293;51.464;-2.566;2023-04-24T00:02:34;13.27;;;8.53;;
10491;SDS011;5293;51.464;-2.566;2023-04-24T00:05:02;10.37;;;8.10;;
10491;SDS011;5293;51.464;-2.566;2023-04-24T00:07:29;13.20;;;8.80;;
10491;SDS011;5293;51.464;-2.566;2023-04-24T00:09:55;12.23;;;8.43;;
10491;SDS011;5293;51.464;-2.566;2023-04-24T00:12:21;12.17;;;8.50;;
10491;SDS011;5293;51.464;-2.566;2023-04-24T00:14:46;14.13;;;8.33;;
10491;SDS011;5293;51.464;-2.566;2023-04-24T00:17:12;10.77;;;8.27;;
10491;SDS011;5293;51.464;-2.566;2023-04-24T00:19:38;14.83;;;8.63;;
10491;SDS011;5293;51.464;-2.566;2023-04-24T00:22:04;10.17;;;7.37;;
10491;SDS011;5293;51.464;-2.566;2023-04-24T00:24:30;11.70;;;7.87;;
10491;SDS011;5293;51.464;-2.566;2023-04-24T00:26:56;11.60;;;7.03;;
10491;SDS011;5293;51.464;-2.566;2023-04-24T00:29:21;10.60;;;7.63;;
10491;SDS011;5293;51.464;-2.566;2023-04-24T00:31:47;12.63;;;7.43;;
10491;SDS011;5293;51.464;-2.566;2023-04-24T00:34:13;8.67;;;7.30;;
10491;SDS011;5293;51.464;-2.566;2023-04-24T00:36:38;9.43;;;6.90;;
10491;SDS011;5293;51.464;-2.566;2023-04-24T00:39:05;11.57;;;7.03;;
10491;SDS011;5293;51.464;-2.566;2023-04-24T00:41:33;9.73;;;7.43;;
10491;SDS011;5293;51.464;-2.566;2023-04-24T00:43:59;11.13;;;7.90;;
10491;SDS011;5293;51.464;-2.566;2023-04-24T00:46:25;11.13;;;7.60;;
10491;SDS011;5293;51.464;-2.566;2023-04-24T00:48:50;8.80;;;6.93;;
10491;SDS011;5293;51.464;-2.566;2023-04-24T00:51:17;8.23;;;7.20;;
10491;SDS011;5293;51.464;-2.566;2023-04-24T00:53:42;9.50;;;6.93;;
10491;SDS011;5293;51.464;-2.566;2023-04-24T00:56:08;8.37;;;6.47;;
10491;SDS011;5293;51.464;-2.566;2023-04-24T00:58:34;7.77;;;6.50;;
10491;SDS011;5293;51.464;-2.566;2023-04-24T01:01:01;9.43;;;6.80;;
10491;SDS011;5293;51.464;-2.566;2023-04-24T01:03:28;9.97;;;5.90;;
10491;SDS011;5293;51.464;-2.566;2023-04-24T01:05:57;7.03;;;6.20;;
10491;SDS011;5293;51.464;-2.566;2023-04-24T01:08:24;7.50;;;6.27;;
10491;SDS011;5293;51.464;-2.566;2023-04-24T01:10:51;8.57;;;6.13;;
10491;SDS011;5293;51.464;-2.566;2023-04-24T01:13:18;8.83;;;6.43;;
10491;SDS011;5293;51.464;-2.566;2023-04-24T01:15:45;11.17;;;5.80;;
10491;SDS011;5293;51.464;-2.566;2023-04-24T01:18:11;8.00;;;5.43;;
10491;SDS011;5293;51.464;-2.566;2023-04-24T01:20:37;8.63;;;5.27;;
10491;SDS011;5293;51.464;-2.566;2023-04-24T01:23:08;6.00;;;4.90;;
10491;SDS011;5293;51.464;-2.566;2023-04-24T01:25:35;5.73;;;5.13;;
10491;SDS011;5293;51.464;-2.566;2023-04-24T01:28:01;7.53;;;5.03;;
10491;SDS011;5293;51.464;-2.566;2023-04-24T01:30:28;5.50;;;4.93;;
10491;SDS011;5293;51.464;-2.566;2023-04-24T01:32:54;9.33;;;4.87;;
10491;SDS011;5293;51.464;-2.566;2023-04-24T01:35:21;5.97;;;4.77;;
10491;SDS011;5293;51.464;-2.566;2023-04-24T01:37:46;6.20;;;4.60;;
10491;SDS011;5293;51.464;-2.566;2023-04-24T01:40:12;6.77;;;4.93;;
10491;SDS011;5293;51.464;-2.566;2023-04-24T01:42:40;8.17;;;4.90;;
10491;SDS011;5293;51.464;-2.566;2023-04-24T01:45:06;5.97;;;4.70;;
10491;SDS011;5293;51.464;-2.566;2023-04-24T01:47:35;4.77;;;3.77;;
10491;SDS011;5293;51.464;-2.566;2023-04-24T01:50:01;5.13;;;4.57;;
10491;SDS011;5293;51.464;-2.566;2023-04-24T01:52:27;10.07;;;5.20;;
10491;SDS011;5293;51.464;-2.566;2023-04-24T01:54:56;7.67;;;5.30;;
10491;SDS011;5293;51.464;-2.566;2023-04-24T01:57:24;8.27;;;5.60;;
10491;SDS011;5293;51.464;-2.566;2023-04-24T01:59:50;8.20;;;6.07;;
10491;SDS011;5293;51.464;-2.566;2023-04-24T02:02:16;8.67;;;6.20;;
10491;SDS011;5293;51.464;-2.566;2023-04-24T02:04:42;7.57;;;5.73;;
10491;SDS011;5293;51.464;-2.566;2023-04-24T02:07:07;11.40;;;6.10;;
10491;SDS011;5293;51.464;-2.566;2023-04-24T02:09:33;9.37;;;6.43;;
10491;SDS011;5293;51.464;-2.566;2023-04-24T02:11:58;10.20;;;6.50;;
10491;SDS011;5293;51.464;-2.566;2023-04-24T02:14:25;7.57;;;6.13;;
10491;SDS011;5293;51.464;-2.566;2023-04-24T02:16:51;8.17;;;6.33;;
10491;SDS011;5293;51.464;-2.566;2023-04-24T02:19:16;9.87;;;6.57;;
10491;SDS011;5293;51.464;-2.566;2023-04-24T02:21:42;11.00;;;6.87;;
10491;SDS011;5293;51.464;-2.566;2023-04-24T02:24:08;9.60;;;6.40;;
10491;SDS011;5293;51.464;-2.566;2023-04-24T02:26:33;8.77;;;6.50;;
10491;SDS011;5293;51.464;-2.566;2023-04-24T02:28:59;8.50;;;6.27;;
10491;SDS011;5293;51.464;-2.566;2023-04-24T02:31:25;10.93;;;6.87;;
10491;SDS011;5293;51.464;-2.566;2023-04-24T02:33:50;10.77;;;7.37;;
10491;SDS011;5293;51.464;-2.566;2023-04-24T02:36:16;11.80;;;7.63;;
10491;SDS011;5293;51.464;-2.566;2023-04-24T02:38:41;12.23;;;7.00;;
10491;SDS011;5293;51.464;-2.566;2023-04-24T02:41:07;9.93;;;6.90;;
10491;SDS011;5293;51.464;-2.566;2023-04-24T02:43:33;11.63;;;7.20;;
10491;SDS011;5293;51.464;-2.566;2023-04-24T02:45:58;11.13;;;6.80;;
10491;SDS011;5293;51.464;-2.566;2023-04-24T02:48:24;15.90;;;7.90;;
10491;SDS011;5293;51.464;-2.566;2023-04-24T02:50:50;11.40;;;7.63;;
10491;SDS011;5293;51.464;-2.566;2023-04-24T02:53:16;9.23;;;6.50;;
10491;SDS011;5293;51.464;-2.566;2023-04-24T02:55:42;9.30;;;6.70;;
10491;SDS011;5293;51.464;-2.566;2023-04-24T02:58:07;10.87;;;6.27;;
10491;SDS011;5293;51.464;-2.566;2023-04-24T03:00:33;9.80;;;6.53;;
10491;SDS011;5293;51.464;-2.566;2023-04-24T03:02:59;11.00;;;6.80;;
10491;SDS011;5293;51.464;-2.566;2023-04-24T03:05:25;11.13;;;7.30;;
10491;SDS011;5293;51.464;-2.566;2023-04-24T03:07:52;9.90;;;6.27;;
10491;SDS011;5293;51.464;-2.566;2023-04-24T03:10:18;10.40;;;6.90;;
10491;SDS011;5293;51.464;-2.566;2023-04-24T03:12:43;12.60;;;7.10;;
10491;SDS011;5293;51.464;-2.566;2023-04-24T03:15:09;10.10;;;6.97;;
10491;SDS011;5293;51.464;-2.566;2023-04-24T03:17:35;10.53;;;7.43;;
10491;SDS011;5293;51.464;-2.566;2023-04-24T03:20:02;12.13;;;7.57;;
10491;SDS011;5293;51.464;-2.566;2023-04-24T03:22:30;14.13;;;7.93;;
10491;SDS011;5293;51.464;-2.566;2023-04-24T03:24:57;10.50;;;7.50;;
10491;SDS011;5293;51.464;-2.566;2023-04-24T03:27:23;12.73;;;7.90;;
10491;SDS011;5293;51.464;-2.566;2023-04-24T03:29:49;12.40;;;7.80;;
10491;SDS011;5293;51.464;-2.566;2023-04-24T03:32:18;9.30;;;7.33;;
10491;SDS011;5293;51.464;-2.566;2023-04-24T03:34:44;12.87;;;8.17;;
10491;SDS011;5293;51.464;-2.566;2023-04-24T03:37:10;11.90;;;7.73;;
10491;SDS011;5293;51.464;-2.566;2023-04-24T03:39:35;12.40;;;7.47;;
10491;SDS011;5293;51.464;-2.566;2023-04-24T03:42:01;12.03;;;7.73;;
10491;SDS011;5293;51.464;-2.566;2023-04-24T03:44:27;11.43;;;7.80;;
10491;SDS011;5293;51.464;-2.566;2023-04-24T03:46:53;13.13;;;8.43;;
10491;SDS011;5293;51.464;-2.566;2023-04-24T03:49:18;13.53;;;8.17;;
10491;SDS011;5293;51.464;-2.566;2023-04-24T03:51:44;10.97;;;7.50;;
10491;SDS011;5293;51.464;-2.566;2023-04-24T03:54:10;12.17;;;8.17;;
10491;SDS011;5293;51.464;-2.566;2023-04-24T03:56:36;13.70;;;8.87;;
10491;SDS011;5293;51.464;-2.566;2023-04-24T03:59:01;11.83;;;8.53;;
10491;SDS011;5293;51.464;-2.566;2023-04-24T04:01:27;11.77;;;8.17;;
10491;SDS011;5293;51.464;-2.566;2023-04-24T04:03:53;11.40;;;7.87;;
10491;SDS011;5293;51.464;-2.566;2023-04-24T04:06:19;12.27;;;7.87;;
10491;SDS011;5293;51.464;-2.566;2023-04-24T04:08:46;13.90;;;8.57;;
10491;SDS011;5293;51.464;-2.566;2023-04-24T04:11:12;14.47;;;8.03;;
10491;SDS011;5293;51.464;-2.566;2023-04-24T04:13:37;12.53;;;7.90;;
10491;SDS011;5293;51.464;-2.566;2023-04-24T04:16:03;10.87;;;7.93;;
10491;SDS011;5293;51.464;-2.566;2023-04-24T04:18:29;14.20;;;8.23;;
10491;SDS011;5293;51.464;-2.566;2023-04-24T04:20:54;12.27;;;8.30;;
10491;SDS011;5293;51.464;-2.566;2023-04-24T04:23:21;16.57;;;9.00;;
10491;SDS011;5293;51.464;-2.566;2023-04-24T04:25:47;13.20;;;8.70;;
10491;SDS011;5293;51.464;-2.566;2023-04-24T04:28:14;16.73;;;9.00;;
10491;SDS011;5293;51.464;-2.566;2023-04-24T04:30:40;13.40;;;9.40;;
10491;SDS011;5293;51.464;-2.566;2023-04-24T04:33:06;14.40;;;8.83;;
10491;SDS011;5293;51.464;-2.566;2023-04-24T04:35:33;15.30;;;9.07;;
10491;SDS011;5293;51.464;-2.566;2023-04-24T04:37:58;15.70;;;8.73;;
10491;SDS011;5293;51.464;-2.566;2023-04-24T04:40:24;15.27;;;9.40;;
10491;SDS011;5293;51.464;-2.566;2023-04-24T04:42:50;15.77;;;8.67;;
10491;SDS011;5293;51.464;-2.566;2023-04-24T04:45:18;13.57;;;9.37;;
10491;SDS011;5293;51.464;-2.566;2023-04-24T04:47:43;12.60;;;8.00;;
10491;SDS011;5293;51.464;-2.566;2023-04-24T04:50:10;11.70;;;9.00;;
10491;SDS011;5293;51.464;-2.566;2023-04-24T04:52:36;14.03;;;8.77;;
10491;SDS011;5293;51.464;-2.566;2023-04-24T04:55:02;12.47;;;7.90;;
10491;SDS011;5293;51.464;-2.566;2023-04-24T04:57:27;11.50;;;8.57;;
10491;SDS011;5293;51.464;-2.566;2023-04-24T04:59:53;13.40;;;9.48;;
10491;SDS011;5293;51.464;-2.566;2023-04-24T05:02:19;11.87;;;8.83;;
10491;SDS011;5293;51.464;-2.566;2023-04-24T05:04:44;10.50;;;7.70;;
10491;SDS011;5293;51.464;-2.566;2023-04-24T05:07:10;14.10;;;8.93;;
10491;SDS011;5293;51.464;-2.566;2023-04-24T05:09:36;13.80;;;8.87;;
10491;SDS011;5293;51.464;-2.566;2023-04-24T05:12:02;11.33;;;8.40;;
10491;SDS011;5293;51.464;-2.566;2023-04-24T05:14:28;12.17;;;8.77;;
10491;SDS011;5293;51.464;-2.566;2023-04-24T05:16:54;17.23;;;9.97;;
10491;SDS011;5293;51.464;-2.566;2023-04-24T05:19:19;12.83;;;9.20;;
10491;SDS011;5293;51.464;-2.566;2023-04-24T05:21:45;15.37;;;10.17;;
10491;SDS011;5293;51.464;-2.566;2023-04-24T05:24:11;14.83;;;9.97;;
10491;SDS011;5293;51.464;-2.566;2023-04-24T05:26:36;12.90;;;9.10;;
10491;SDS011;5293;51.464;-2.566;2023-04-24T05:29:03;12.03;;;9.50;;
10491;SDS011;5293;51.464;-2.566;2023-04-24T05:31:29;14.07;;;9.03;;
10491;SDS011;5293;51.464;-2.566;2023-04-24T05:33:54;14.93;;;8.97;;
10491;SDS011;5293;51.464;-2.566;2023-04-24T05:36:20;13.57;;;8.90;;
10491;SDS011;5293;51.464;-2.566;2023-04-24T05:38:46;13.83;;;8.83;;
10491;SDS011;5293;51.464;-2.566;2023-04-24T05:41:11;12.53;;;9.23;;
10491;SDS011;5293;51.464;-2.566;2023-04-24T05:43:37;13.67;;;9.00;;
10491;SDS011;5293;51.464;-2.566;2023-04-24T05:46:03;16.30;;;9.87;;
10491;SDS011;5293;51.464;-2.566;2023-04-24T05:48:28;14.57;;;9.60;;
10491;SDS011;5293;51.464;-2.566;2023-04-24T05:50:54;14.17;;;10.27;;
10491;SDS011;5293;51.464;-2.566;2023-04-24T05:53:20;15.00;;;10.33;;
10491;SDS011;5293;51.464;-2.566;2023-04-24T05:55:47;24.40;;;13.67;;
10491;SDS011;5293;51.464;-2.566;2023-04-24T05:58:12;21.20;;;13.33;;
10491;SDS011;5293;51.464;-2.566;2023-04-24T06:00:39;24.67;;;12.30;;
10491;SDS011;5293;51.464;-2.566;2023-04-24T06:03:07;20.87;;;12.03;;
10491;SDS011;5293;51.464;-2.566;2023-04-24T06:05:33;14.97;;;9.53;;
10491;SDS011;5293;51.464;-2.566;2023-04-24T06:07:59;15.37;;;9.60;;
10491;SDS011;5293;51.464;-2.566;2023-04-24T06:10:25;16.33;;;9.70;;
10491;SDS011;5293;51.464;-2.566;2023-04-24T06:12:51;14.10;;;9.60;;
10491;SDS011;5293;51.464;-2.566;2023-04-24T06:15:16;14.23;;;9.00;;
10491;SDS011;5293;51.464;-2.566;2023-04-24T06:17:42;12.57;;;9.03;;
10491;SDS011;5293;51.464;-2.566;2023-04-24T06:20:08;11.13;;;9.23;;
10491;SDS011;5293;51.464;-2.566;2023-04-24T06:22:35;11.33;;;8.50;;
10491;SDS011;5293;51.464;-2.566;2023-04-24T06:25:01;13.30;;;8.33;;
10491;SDS011;5293;51.464;-2.566;2023-04-24T06:27:27;11.47;;;8.07;;
10491;SDS011;5293;51.464;-2.566;2023-04-24T06:29:52;16.63;;;8.77;;
10491;SDS011;5293;51.464;-2.566;2023-04-24T06:32:22;9.23;;;7.40;;
10491;SDS011;5293;51.464;-2.566;2023-04-24T06:34:50;14.37;;;8.43;;
10491;SDS011;5293;51.464;-2.566;2023-04-24T06:37:19;10.70;;;7.63;;
10491;SDS011;5293;51.464;-2.566;2023-04-24T06:39:45;8.20;;;7.00;;
10491;SDS011;5293;51.464;-2.566;2023-04-24T06:42:11;12.37;;;8.03;;
10491;SDS011;5293;51.464;-2.566;2023-04-24T06:44:37;13.23;;;8.73;;
10491;SDS011;5293;51.464;-2.566;2023-04-24T06:47:08;10.87;;;7.60;;
10491;SDS011;5293;51.464;-2.566;2023-04-24T06:49:38;11.47;;;8.07;;
10491;SDS011;5293;51.464;-2.566;2023-04-24T06:52:04;12.27;;;7.97;;
10491;SDS011;5293;51.464;-2.566;2023-04-24T06:54:30;14.37;;;9.07;;
10491;SDS011;5293;51.464;-2.566;2023-04-24T06:56:56;14.57;;;8.67;;
10491;SDS011;5293;51.464;-2.566;2023-04-24T06:59:23;12.07;;;8.47;;
10491;SDS011;5293;51.464;-2.566;2023-04-24T07:01:49;12.00;;;8.40;;
10491;SDS011;5293;51.464;-2.566;2023-04-24T07:04:16;10.57;;;8.73;;
10491;SDS011;5293;51.464;-2.566;2023-04-24T07:06:42;11.60;;;8.60;;
10491;SDS011;5293;51.464;-2.566;2023-04-24T07:09:10;13.60;;;8.70;;
10491;SDS011;5293;51.464;-2.566;2023-04-24T07:11:36;13.30;;;8.97;;
10491;SDS011;5293;51.464;-2.566;2023-04-24T07:14:04;16.80;;;9.10;;
10491;SDS011;5293;51.464;-2.566;2023-04-24T07:16:29;13.13;;;9.03;;
10491;SDS011;5293;51.464;-2.566;2023-04-24T07:18:55;11.77;;;8.33;;
10491;SDS011;5293;51.464;-2.566;2023-04-24T07:21:21;12.70;;;8.57;;
10491;SDS011;5293;51.464;-2.566;2023-04-24T07:23:46;13.43;;;7.67;;
10491;SDS011;5293;51.464;-2.566;2023-04-24T07:26:12;11.67;;;7.97;;
10491;SDS011;5293;51.464;-2.566;2023-04-24T07:28:39;14.67;;;8.30;;
10491;SDS011;5293;51.464;-2.566;2023-04-24T07:31:05;10.93;;;7.47;;
10491;SDS011;5293;51.464;-2.566;2023-04-24T07:33:32;13.37;;;8.17;;
10491;SDS011;5293;51.464;-2.566;2023-04-24T07:35:58;12.80;;;8.50;;
10491;SDS011;5293;51.464;-2.566;2023-04-24T07:38:24;12.10;;;8.07;;
10491;SDS011;5293;51.464;-2.566;2023-04-24T07:40:50;12.40;;;8.37;;
10491;SDS011;5293;51.464;-2.566;2023-04-24T07:43:16;11.20;;;7.53;;
10491;SDS011;5293;51.464;-2.566;2023-04-24T07:45:42;13.97;;;8.20;;
10491;SDS011;5293;51.464;-2.566;2023-04-24T07:48:08;12.00;;;8.20;;
10491;SDS011;5293;51.464;-2.566;2023-04-24T07:50:34;12.80;;;8.50;;
10491;SDS011;5293;51.464;-2.566;2023-04-24T07:53:01;13.90;;;8.07;;
10491;SDS011;5293;51.464;-2.566;2023-04-24T07:55:27;10.00;;;7.20;;
10491;SDS011;5293;51.464;-2.566;2023-04-24T07:57:52;8.60;;;6.53;;
10491;SDS011;5293;51.464;-2.566;2023-04-24T08:00:18;6.00;;;5.27;;
10491;SDS011;5293;51.464;-2.566;2023-04-24T08:02:44;10.60;;;4.97;;
10491;SDS011;5293;51.464;-2.566;2023-04-24T08:05:10;8.00;;;5.47;;
10491;SDS011;5293;51.464;-2.566;2023-04-24T08:07:36;7.70;;;5.50;;
10491;SDS011;5293;51.464;-2.566;2023-04-24T08:10:02;9.37;;;5.67;;
10491;SDS011;5293;51.464;-2.566;2023-04-24T08:12:28;8.77;;;6.07;;
10491;SDS011;5293;51.464;-2.566;2023-04-24T08:14:54;7.20;;;6.13;;
10491;SDS011;5293;51.464;-2.566;2023-04-24T08:17:20;7.83;;;6.27;;
10491;SDS011;5293;51.464;-2.566;2023-04-24T08:19:46;9.63;;;7.13;;
10491;SDS011;5293;51.464;-2.566;2023-04-24T08:22:16;9.37;;;6.33;;
10491;SDS011;5293;51.464;-2.566;2023-04-24T08:24:42;10.63;;;6.50;;
10491;SDS011;5293;51.464;-2.566;2023-04-24T08:27:08;8.97;;;7.00;;
10491;SDS011;5293;51.464;-2.566;2023-04-24T08:29:34;10.57;;;6.50;;
10491;SDS011;5293;51.464;-2.566;2023-04-24T08:32:00;9.53;;;6.67;;
10491;SDS011;5293;51.464;-2.566;2023-04-24T08:34:25;10.70;;;6.50;;
10491;SDS011;5293;51.464;-2.566;2023-04-24T08:36:51;9.17;;;6.97;;
10491;SDS011;5293;51.464;-2.566;2023-04-24T08:39:17;8.23;;;7.27;;
10491;SDS011;5293;51.464;-2.566;2023-04-24T08:41:43;9.60;;;7.00;;
10491;SDS011;5293;51.464;-2.566;2023-04-24T08:44:10;12.43;;;6.73;;
10491;SDS011;5293;51.464;-2.566;2023-04-24T08:46:37;9.17;;;7.57;;
10491;SDS011;5293;51.464;-2.566;2023-04-24T08:49:04;9.23;;;7.40;;
10491;SDS011;5293;51.464;-2.566;2023-04-24T08:51:30;8.10;;;6.70;;
10491;SDS011;5293;51.464;-2.566;2023-04-24T08:53:57;11.10;;;6.67;;
10491;SDS011;5293;51.464;-2.566;2023-04-24T08:56:22;9.33;;;6.43;;
10491;SDS011;5293;51.464;-2.566;2023-04-24T08:58:50;11.30;;;7.23;;
10491;SDS011;5293;51.464;-2.566;2023-04-24T09:01:18;12.50;;;6.77;;
10491;SDS011;5293;51.464;-2.566;2023-04-24T09:03:46;10.03;;;6.80;;
10491;SDS011;5293;51.464;-2.566;2023-04-24T09:06:13;13.73;;;7.47;;
10491;SDS011;5293;51.464;-2.566;2023-04-24T09:08:41;12.53;;;7.40;;
10491;SDS011;5293;51.464;-2.566;2023-04-24T09:11:08;11.57;;;7.00;;
10491;SDS011;5293;51.464;-2.566;2023-04-24T09:13:37;9.60;;;7.13;;
10491;SDS011;5293;51.464;-2.566;2023-04-24T09:16:03;9.23;;;6.93;;
10491;SDS011;5293;51.464;-2.566;2023-04-24T09:18:29;10.87;;;6.83;;
10491;SDS011;5293;51.464;-2.566;2023-04-24T09:23:32;12.67;;;8.03;;
10491;SDS011;5293;51.464;-2.566;2023-04-24T09:25:58;10.80;;;7.50;;
10491;SDS011;5293;51.464;-2.566;2023-04-24T09:28:26;9.90;;;6.60;;
10491;SDS011;5293;51.464;-2.566;2023-04-24T09:31:14;10.17;;;6.60;;
10491;SDS011;5293;51.464;-2.566;2023-04-24T09:33:55;10.47;;;6.40;;
10491;SDS011;5293;51.464;-2.566;2023-04-24T09:36:29;8.43;;;6.13;;
10491;SDS011;5293;51.464;-2.566;2023-04-24T09:38:59;10.97;;;6.70;;
10491;SDS011;5293;51.464;-2.566;2023-04-24T09:41:26;8.33;;;6.13;;
10491;SDS011;5293;51.464;-2.566;2023-04-24T09:43:55;11.37;;;7.27;;
10491;SDS011;5293;51.464;-2.566;2023-04-24T09:46:28;13.73;;;9.00;;
10491;SDS011;5293;51.464;-2.566;2023-04-24T09:48:56;13.13;;;10.33;;
10491;SDS011;5293;51.464;-2.566;2023-04-24T09:51:34;15.47;;;9.87;;
10491;SDS011;5293;51.464;-2.566;2023-04-24T09:54:02;14.53;;;10.27;;
10491;SDS011;5293;51.464;-2.566;2023-04-24T09:56:32;11.20;;;9.30;;
10491;SDS011;5293;51.464;-2.566;2023-04-24T09:59:04;12.33;;;8.87;;
10491;SDS011;5293;51.464;-2.566;2023-04-24T10:01:31;15.37;;;9.07;;
10491;SDS011;5293;51.464;-2.566;2023-04-24T10:03:57;14.83;;;9.57;;
10491;SDS011;5293;51.464;-2.566;2023-04-24T10:06:29;14.93;;;9.20;;
10491;SDS011;5293;51.464;-2.566;2023-04-24T10:08:58;12.13;;;8.03;;
10491;SDS011;5293;51.464;-2.566;2023-04-24T10:11:26;13.50;;;8.73;;
10491;SDS011;5293;51.464;-2.566;2023-04-24T10:13:52;15.20;;;9.17;;
10491;SDS011;5293;51.464;-2.566;2023-04-24T10:16:18;13.43;;;9.30;;
10491;SDS011;5293;51.464;-2.566;2023-04-24T10:18:46;15.80;;;9.83;;
10491;SDS011;5293;51.464;-2.566;2023-04-24T10:21:14;14.90;;;9.60;;
10491;SDS011;5293;51.464;-2.566;2023-04-24T10:23:40;15.07;;;10.10;;
10491;SDS011;5293;51.464;-2.566;2023-04-24T10:26:08;15.37;;;9.00;;
10491;SDS011;5293;51.464;-2.566;2023-04-24T10:28:36;16.93;;;10.37;;
10491;SDS011;5293;51.464;-2.566;2023-04-24T10:31:02;18.00;;;10.37;;
10491;SDS011;5293;51.464;-2.566;2023-04-24T10:33:29;13.63;;;10.07;;
10491;SDS011;5293;51.464;-2.566;2023-04-24T10:35:55;12.53;;;9.20;;
10491;SDS011;5293;51.464;-2.566;2023-04-24T10:38:24;15.60;;;9.83;;
10491;SDS011;5293;51.464;-2.566;2023-04-24T10:40:51;17.30;;;9.80;;
10491;SDS011;5293;51.464;-2.566;2023-04-24T10:43:31;19.87;;;10.17;;
10491;SDS011;5293;51.464;-2.566;2023-04-24T10:46:02;13.57;;;9.70;;
10491;SDS011;5293;51.464;-2.566;2023-04-24T10:48:28;14.13;;;10.37;;
10491;SDS011;5293;51.464;-2.566;2023-04-24T10:50:54;11.80;;;8.60;;
10491;SDS011;5293;51.464;-2.566;2023-04-24T10:53:24;14.00;;;9.37;;
10491;SDS011;5293;51.464;-2.566;2023-04-24T10:56:02;13.67;;;9.23;;
10491;SDS011;5293;51.464;-2.566;2023-04-24T10:58:37;12.70;;;8.97;;
10491;SDS011;5293;51.464;-2.566;2023-04-24T11:01:05;12.07;;;9.20;;
10491;SDS011;5293;51.464;-2.566;2023-04-24T11:03:32;12.63;;;8.93;;
10491;SDS011;5293;51.464;-2.566;2023-04-24T11:08:32;10.00;;;7.37;;
10491;SDS011;5293;51.464;-2.566;2023-04-24T11:16:34;8.43;;;6.63;;
10491;SDS011;5293;51.464;-2.566;2023-04-24T11:19:04;8.17;;;6.23;;
10491;SDS011;5293;51.464;-2.566;2023-04-24T11:21:41;6.67;;;4.77;;
10491;SDS011;5293;51.464;-2.566;2023-04-24T11:26:51;6.73;;;5.37;;
10491;SDS011;5293;51.464;-2.566;2023-04-24T11:29:19;5.87;;;4.53;;
10491;SDS011;5293;51.464;-2.566;2023-04-24T11:31:46;6.83;;;5.70;;
10491;SDS011;5293;51.464;-2.566;2023-04-24T11:34:16;7.57;;;5.90;;
10491;SDS011;5293;51.464;-2.566;2023-04-24T11:36:46;10.27;;;6.67;;
10491;SDS011;5293;51.464;-2.566;2023-04-24T11:39:13;8.63;;;6.47;;
10491;SDS011;5293;51.464;-2.566;2023-04-24T11:41:40;7.40;;;5.70;;
10491;SDS011;5293;51.464;-2.566;2023-04-24T11:44:06;7.40;;;5.80;;
10491;SDS011;5293;51.464;-2.566;2023-04-24T11:46:33;5.60;;;4.77;;
10491;SDS011;5293;51.464;-2.566;2023-04-24T11:48:58;5.87;;;3.90;;
10491;SDS011;5293;51.464;-2.566;2023-04-24T11:51:25;4.80;;;4.40;;
10491;SDS011;5293;51.464;-2.566;2023-04-24T11:53:55;5.83;;;5.23;;
10491;SDS011;5293;51.464;-2.566;2023-04-24T11:56:22;7.03;;;5.40;;
10491;SDS011;5293;51.464;-2.566;2023-04-24T11:58:48;7.73;;;5.40;;
10491;SDS011;5293;51.464;-2.566;2023-04-24T12:01:18;5.50;;;4.60;;
10491;SDS011;5293;51.464;-2.566;2023-04-24T12:03:47;4.30;;;3.90;;
10491;SDS011;5293;51.464;-2.566;2023-04-24T12:06:13;4.60;;;4.20;;
10491;SDS011;5293;51.464;-2.566;2023-04-24T12:08:39;5.67;;;4.47;;
10491;SDS011;5293;51.464;-2.566;2023-04-24T12:11:05;6.40;;;4.77;;
10491;SDS011;5293;51.464;-2.566;2023-04-24T12:13:32;6.03;;;4.13;;
10491;SDS011;5293;51.464;-2.566;2023-04-24T12:15:58;4.33;;;3.10;;
10491;SDS011;5293;51.464;-2.566;2023-04-24T12:18:26;5.73;;;3.97;;
10491;SDS011;5293;51.464;-2.566;2023-04-24T12:20:52;7.97;;;3.83;;
10491;SDS011;5293;51.464;-2.566;2023-04-24T12:23:32;4.23;;;3.80;;
10491;SDS011;5293;51.464;-2.566;2023-04-24T12:26:00;5.70;;;3.97;;
10491;SDS011;5293;51.464;-2.566;2023-04-24T12:28:34;7.50;;;4.43;;
10491;SDS011;5293;51.464;-2.566;2023-04-24T12:31:01;6.70;;;4.77;;
10491;SDS011;5293;51.464;-2.566;2023-04-24T12:33:27;5.87;;;4.37;;
10491;SDS011;5293;51.464;-2.566;2023-04-24T12:35:57;4.83;;;4.30;;
10491;SDS011;5293;51.464;-2.566;2023-04-24T12:38:24;5.50;;;4.17;;
10491;SDS011;5293;51.464;-2.566;2023-04-24T12:41:04;4.40;;;4.00;;
10491;SDS011;5293;51.464;-2.566;2023-04-24T12:43:31;6.10;;;4.40;;
10491;SDS011;5293;51.464;-2.566;2023-04-24T12:45:58;5.87;;;4.60;;
10491;SDS011;5293;51.464;-2.566;2023-04-24T12:48:24;5.83;;;5.00;;
10491;SDS011;5293;51.464;-2.566;2023-04-24T12:50:53;5.70;;;3.90;;
10491;SDS011;5293;51.464;-2.566;2023-04-24T12:53:20;5.77;;;4.37;;
10491;SDS011;5293;51.464;-2.566;2023-04-24T12:55:46;4.67;;;3.67;;
10491;SDS011;5293;51.464;-2.566;2023-04-24T12:58:17;5.83;;;4.47;;
10491;SDS011;5293;51.464;-2.566;2023-04-24T13:00:46;6.40;;;4.93;;
10491;SDS011;5293;51.464;-2.566;2023-04-24T13:03:12;6.93;;;4.53;;
10491;SDS011;5293;51.464;-2.566;2023-04-24T13:05:39;5.73;;;5.20;;
10491;SDS011;5293;51.464;-2.566;2023-04-24T13:08:05;7.73;;;4.83;;
10491;SDS011;5293;51.464;-2.566;2023-04-24T13:10:30;5.10;;;4.63;;
10491;SDS011;5293;51.464;-2.566;2023-04-24T13:12:56;5.43;;;4.23;;
10491;SDS011;5293;51.464;-2.566;2023-04-24T13:15:22;7.73;;;5.10;;
10491;SDS011;5293;51.464;-2.566;2023-04-24T13:17:48;6.67;;;5.27;;
10491;SDS011;5293;51.464;-2.566;2023-04-24T13:20:14;5.47;;;4.97;;
10491;SDS011;5293;51.464;-2.566;2023-04-24T13:22:39;6.23;;;4.87;;
10491;SDS011;5293;51.464;-2.566;2023-04-24T13:25:05;7.03;;;4.97;;
10491;SDS011;5293;51.464;-2.566;2023-04-24T13:27:32;7.40;;;4.97;;
10491;SDS011;5293;51.464;-2.566;2023-04-24T13:29:58;7.57;;;5.23;;
10491;SDS011;5293;51.464;-2.566;2023-04-24T13:32:23;6.20;;;5.07;;
10491;SDS011;5293;51.464;-2.566;2023-04-24T13:34:50;7.13;;;5.53;;
10491;SDS011;5293;51.464;-2.566;2023-04-24T13:37:16;5.17;;;4.67;;
10491;SDS011;5293;51.464;-2.566;2023-04-24T13:39:41;8.20;;;6.23;;
10491;SDS011;5293;51.464;-2.566;2023-04-24T13:42:07;6.70;;;5.87;;
10491;SDS011;5293;51.464;-2.566;2023-04-24T13:44:33;4.90;;;4.37;;
10491;SDS011;5293;51.464;-2.566;2023-04-24T13:46:59;9.83;;;6.27;;
10491;SDS011;5293;51.464;-2.566;2023-04-24T13:49:25;6.87;;;5.27;;
10491;SDS011;5293;51.464;-2.566;2023-04-24T13:51:52;6.40;;;5.13;;
10491;SDS011;5293;51.464;-2.566;2023-04-24T13:54:19;5.70;;;4.40;;
10491;SDS011;5293;51.464;-2.566;2023-04-24T13:56:44;5.47;;;4.20;;
10491;SDS011;5293;51.464;-2.566;2023-04-24T13:59:12;5.73;;;4.00;;
10491;SDS011;5293;51.464;-2.566;2023-04-24T14:01:38;6.63;;;4.23;;
10491;SDS011;5293;51.464;-2.566;2023-04-24T14:04:04;5.43;;;4.40;;
10491;SDS011;5293;51.464;-2.566;2023-04-24T14:06:29;5.63;;;4.03;;
10491;SDS011;5293;51.464;-2.566;2023-04-24T14:08:56;6.60;;;4.27;;
10491;SDS011;5293;51.464;-2.566;2023-04-24T14:11:22;6.90;;;4.10;;
10491;SDS011;5293;51.464;-2.566;2023-04-24T14:13:48;5.27;;;4.00;;
10491;SDS011;5293;51.464;-2.566;2023-04-24T14:16:13;5.23;;;3.83;;
10491;SDS011;5293;51.464;-2.566;2023-04-24T14:18:39;4.80;;;3.70;;
10491;SDS011;5293;51.464;-2.566;2023-04-24T14:21:05;5.20;;;4.23;;
10491;SDS011;5293;51.464;-2.566;2023-04-24T14:23:31;4.83;;;3.67;;
10491;SDS011;5293;51.464;-2.566;2023-04-24T14:25:57;4.10;;;3.70;;
10491;SDS011;5293;51.464;-2.566;2023-04-24T14:28:23;4.77;;;3.50;;
10491;SDS011;5293;51.464;-2.566;2023-04-24T14:30:50;3.40;;;3.10;;
10491;SDS011;5293;51.464;-2.566;2023-04-24T14:33:16;4.10;;;3.23;;
10491;SDS011;5293;51.464;-2.566;2023-04-24T14:35:42;5.33;;;3.27;;
10491;SDS011;5293;51.464;-2.566;2023-04-24T14:38:08;4.00;;;3.40;;
10491;SDS011;5293;51.464;-2.566;2023-04-24T14:40:34;4.03;;;3.27;;
10491;SDS011;5293;51.464;-2.566;2023-04-24T14:43:00;4.13;;;3.23;;
10491;SDS011;5293;51.464;-2.566;2023-04-24T14:45:26;4.40;;;3.40;;
10491;SDS011;5293;51.464;-2.566;2023-04-24T14:47:52;4.40;;;3.30;;
10491;SDS011;5293;51.464;-2.566;2023-04-24T14:50:18;5.27;;;4.00;;